sensor_id;sensor_type;location;lat;lon;timestamp;P1;durP1;ratioP1;P2;durP2;ratioP2
35306;SDS011;21420;52.196;21.416;2022-12-17T00:01:57;65.37;;;35.00;;
35306;SDS011;21420;52.196;21.416;2022-12-17T00:04:42;61.45;;;35.20;;
35306;SDS011;21420;52.196;21.416;2022-12-17T00:07:26;63.05;;;35.43;;
35306;SDS011;21420;52.196;21.416;2022-12-17T00:10:11;56.37;;;32.85;;
35306;SDS011;21420;52.196;21.416;2022-12-17T00:12:56;63.28;;;35.33;;
35306;SDS011;21420;52.196;21.416;2022-12-17T00:15:41;62.48;;;35.00;;
35306;SDS011;21420;52.196;21.416;2022-12-17T00:18:26;63.23;;;34.03;;
35306;SDS011;21420;52.196;21.416;2022-12-17T00:21:11;56.88;;;31.82;;
35306;SDS011;21420;52.196;21.416;2022-12-17T00:23:56;58.13;;;32.42;;
35306;SDS011;21420;52.196;21.416;2022-12-17T00:26:40;64.15;;;35.48;;
35306;SDS011;21420;52.196;21.416;2022-12-17T00:29:25;59.75;;;32.60;;
35306;SDS011;21420;52.196;21.416;2022-12-17T00:32:10;55.28;;;31.95;;
35306;SDS011;21420;52.196;21.416;2022-12-17T00:34:54;49.15;;;29.20;;
35306;SDS011;21420;52.196;21.416;2022-12-17T00:37:40;55.10;;;30.55;;
35306;SDS011;21420;52.196;21.416;2022-12-17T00:40:25;60.92;;;31.68;;
35306;SDS011;21420;52.196;21.416;2022-12-17T00:43:11;55.45;;;31.00;;
35306;SDS011;21420;52.196;21.416;2022-12-17T00:45:57;55.28;;;30.95;;
35306;SDS011;21420;52.196;21.416;2022-12-17T00:48:43;52.55;;;30.50;;
35306;SDS011;21420;52.196;21.416;2022-12-17T00:51:28;53.17;;;30.08;;
35306;SDS011;21420;52.196;21.416;2022-12-17T00:54:13;51.53;;;31.57;;
35306;SDS011;21420;52.196;21.416;2022-12-17T00:56:58;53.45;;;29.23;;
35306;SDS011;21420;52.196;21.416;2022-12-17T00:59:43;54.42;;;31.30;;
35306;SDS011;21420;52.196;21.416;2022-12-17T01:02:27;51.58;;;28.45;;
35306;SDS011;21420;52.196;21.416;2022-12-17T01:05:12;51.23;;;29.35;;
35306;SDS011;21420;52.196;21.416;2022-12-17T01:08:05;55.73;;;30.40;;
35306;SDS011;21420;52.196;21.416;2022-12-17T01:11:02;50.23;;;28.35;;
35306;SDS011;21420;52.196;21.416;2022-12-17T01:13:51;51.60;;;29.27;;
35306;SDS011;21420;52.196;21.416;2022-12-17T01:16:36;50.05;;;29.35;;
35306;SDS011;21420;52.196;21.416;2022-12-17T01:19:21;47.67;;;28.90;;
35306;SDS011;21420;52.196;21.416;2022-12-17T01:22:06;54.40;;;29.50;;
35306;SDS011;21420;52.196;21.416;2022-12-17T01:24:54;52.20;;;29.63;;
35306;SDS011;21420;52.196;21.416;2022-12-17T01:27:39;51.45;;;31.17;;
35306;SDS011;21420;52.196;21.416;2022-12-17T01:30:25;51.70;;;30.10;;
35306;SDS011;21420;52.196;21.416;2022-12-17T01:33:11;50.95;;;31.37;;
35306;SDS011;21420;52.196;21.416;2022-12-17T01:35:56;50.78;;;30.30;;
35306;SDS011;21420;52.196;21.416;2022-12-17T01:38:42;55.05;;;29.37;;
35306;SDS011;21420;52.196;21.416;2022-12-17T01:41:27;53.28;;;31.97;;
35306;SDS011;21420;52.196;21.416;2022-12-17T01:47:46;51.85;;;30.55;;
35306;SDS011;21420;52.196;21.416;2022-12-17T01:50:40;51.05;;;30.40;;
35306;SDS011;21420;52.196;21.416;2022-12-17T01:53:30;60.12;;;31.82;;
35306;SDS011;21420;52.196;21.416;2022-12-17T01:56:11;56.68;;;31.42;;
35306;SDS011;21420;52.196;21.416;2022-12-17T01:58:56;58.08;;;31.20;;
35306;SDS011;21420;52.196;21.416;2022-12-17T02:01:41;57.83;;;34.75;;
35306;SDS011;21420;52.196;21.416;2022-12-17T02:04:26;58.15;;;31.48;;
35306;SDS011;21420;52.196;21.416;2022-12-17T02:07:17;60.40;;;31.87;;
35306;SDS011;21420;52.196;21.416;2022-12-17T02:10:34;57.15;;;31.60;;
35306;SDS011;21420;52.196;21.416;2022-12-17T02:13:40;55.15;;;32.08;;
35306;SDS011;21420;52.196;21.416;2022-12-17T02:16:30;59.60;;;33.35;;
35306;SDS011;21420;52.196;21.416;2022-12-17T02:25:50;65.95;;;33.98;;
35306;SDS011;21420;52.196;21.416;2022-12-17T02:29:00;60.48;;;31.05;;
35306;SDS011;21420;52.196;21.416;2022-12-17T02:31:47;57.90;;;32.20;;
35306;SDS011;21420;52.196;21.416;2022-12-17T02:34:48;57.78;;;31.95;;
35306;SDS011;21420;52.196;21.416;2022-12-17T02:37:31;53.50;;;31.93;;
35306;SDS011;21420;52.196;21.416;2022-12-17T02:40:19;56.28;;;33.25;;
35306;SDS011;21420;52.196;21.416;2022-12-17T02:43:06;54.77;;;31.25;;
35306;SDS011;21420;52.196;21.416;2022-12-17T02:45:53;59.58;;;32.95;;
35306;SDS011;21420;52.196;21.416;2022-12-17T02:48:40;55.08;;;32.28;;
35306;SDS011;21420;52.196;21.416;2022-12-17T02:51:26;61.30;;;32.53;;
35306;SDS011;21420;52.196;21.416;2022-12-17T02:54:11;59.65;;;32.98;;
35306;SDS011;21420;52.196;21.416;2022-12-17T02:56:56;65.67;;;34.78;;
35306;SDS011;21420;52.196;21.416;2022-12-17T02:59:41;63.30;;;35.68;;
35306;SDS011;21420;52.196;21.416;2022-12-17T03:02:26;64.67;;;37.60;;
35306;SDS011;21420;52.196;21.416;2022-12-17T03:05:11;66.97;;;37.48;;
35306;SDS011;21420;52.196;21.416;2022-12-17T03:07:56;60.23;;;33.33;;
35306;SDS011;21420;52.196;21.416;2022-12-17T03:10:40;55.85;;;32.60;;
35306;SDS011;21420;52.196;21.416;2022-12-17T03:13:25;54.83;;;31.85;;
35306;SDS011;21420;52.196;21.416;2022-12-17T03:18:48;56.70;;;33.18;;
35306;SDS011;21420;52.196;21.416;2022-12-17T03:21:33;54.08;;;30.55;;
35306;SDS011;21420;52.196;21.416;2022-12-17T03:24:18;56.88;;;32.35;;
35306;SDS011;21420;52.196;21.416;2022-12-17T03:27:04;54.77;;;30.23;;
35306;SDS011;21420;52.196;21.416;2022-12-17T03:29:48;53.45;;;31.07;;
35306;SDS011;21420;52.196;21.416;2022-12-17T03:32:33;57.05;;;31.15;;
35306;SDS011;21420;52.196;21.416;2022-12-17T03:35:17;54.15;;;31.02;;
35306;SDS011;21420;52.196;21.416;2022-12-17T03:38:05;54.85;;;29.92;;
35306;SDS011;21420;52.196;21.416;2022-12-17T03:40:52;52.20;;;29.10;;
35306;SDS011;21420;52.196;21.416;2022-12-17T03:43:37;49.77;;;29.18;;
35306;SDS011;21420;52.196;21.416;2022-12-17T03:46:22;54.73;;;30.10;;
35306;SDS011;21420;52.196;21.416;2022-12-17T03:49:06;48.60;;;29.18;;
35306;SDS011;21420;52.196;21.416;2022-12-17T03:51:51;47.88;;;28.62;;
35306;SDS011;21420;52.196;21.416;2022-12-17T03:54:36;49.53;;;29.10;;
35306;SDS011;21420;52.196;21.416;2022-12-17T03:57:21;49.58;;;29.90;;
35306;SDS011;21420;52.196;21.416;2022-12-17T04:00:05;48.75;;;27.50;;
35306;SDS011;21420;52.196;21.416;2022-12-17T04:02:52;50.45;;;30.80;;
35306;SDS011;21420;52.196;21.416;2022-12-17T04:05:37;52.08;;;30.08;;
35306;SDS011;21420;52.196;21.416;2022-12-17T04:08:08;50.33;;;29.87;;
35306;SDS011;21420;52.196;21.416;2022-12-17T04:10:52;50.03;;;29.12;;
35306;SDS011;21420;52.196;21.416;2022-12-17T04:13:37;53.87;;;30.27;;
35306;SDS011;21420;52.196;21.416;2022-12-17T04:16:21;50.17;;;28.85;;
35306;SDS011;21420;52.196;21.416;2022-12-17T04:19:06;46.30;;;27.60;;
35306;SDS011;21420;52.196;21.416;2022-12-17T04:21:50;46.15;;;27.62;;
35306;SDS011;21420;52.196;21.416;2022-12-17T04:24:35;48.10;;;28.38;;
35306;SDS011;21420;52.196;21.416;2022-12-17T04:27:19;49.75;;;29.48;;
35306;SDS011;21420;52.196;21.416;2022-12-17T04:30:04;49.53;;;29.98;;
35306;SDS011;21420;52.196;21.416;2022-12-17T04:32:50;52.13;;;29.57;;
35306;SDS011;21420;52.196;21.416;2022-12-17T04:35:34;54.83;;;30.80;;
35306;SDS011;21420;52.196;21.416;2022-12-17T04:38:19;49.90;;;29.12;;
35306;SDS011;21420;52.196;21.416;2022-12-17T04:41:03;47.25;;;28.38;;
35306;SDS011;21420;52.196;21.416;2022-12-17T04:43:48;49.65;;;29.75;;
35306;SDS011;21420;52.196;21.416;2022-12-17T04:46:33;55.43;;;30.48;;
35306;SDS011;21420;52.196;21.416;2022-12-17T04:49:17;49.40;;;29.55;;
35306;SDS011;21420;52.196;21.416;2022-12-17T04:52:02;58.63;;;32.30;;
35306;SDS011;21420;52.196;21.416;2022-12-17T04:54:47;52.75;;;30.88;;
35306;SDS011;21420;52.196;21.416;2022-12-17T04:57:31;49.53;;;30.40;;
35306;SDS011;21420;52.196;21.416;2022-12-17T05:00:16;56.55;;;31.82;;
35306;SDS011;21420;52.196;21.416;2022-12-17T05:03:15;56.13;;;31.27;;
35306;SDS011;21420;52.196;21.416;2022-12-17T05:05:58;49.88;;;29.27;;
35306;SDS011;21420;52.196;21.416;2022-12-17T05:08:43;51.95;;;29.92;;
35306;SDS011;21420;52.196;21.416;2022-12-17T05:11:30;53.65;;;31.48;;
35306;SDS011;21420;52.196;21.416;2022-12-17T05:14:15;49.60;;;29.87;;
35306;SDS011;21420;52.196;21.416;2022-12-17T05:17:00;50.17;;;29.12;;
35306;SDS011;21420;52.196;21.416;2022-12-17T05:19:45;51.35;;;31.37;;
35306;SDS011;21420;52.196;21.416;2022-12-17T05:22:30;58.15;;;32.00;;
35306;SDS011;21420;52.196;21.416;2022-12-17T05:25:17;57.78;;;31.23;;
35306;SDS011;21420;52.196;21.416;2022-12-17T05:28:02;53.48;;;30.75;;
35306;SDS011;21420;52.196;21.416;2022-12-17T05:30:52;48.35;;;29.12;;
35306;SDS011;21420;52.196;21.416;2022-12-17T05:33:38;52.78;;;30.23;;
35306;SDS011;21420;52.196;21.416;2022-12-17T05:36:23;56.48;;;31.95;;
35306;SDS011;21420;52.196;21.416;2022-12-17T05:39:08;54.38;;;31.48;;
35306;SDS011;21420;52.196;21.416;2022-12-17T05:41:53;50.20;;;30.48;;
35306;SDS011;21420;52.196;21.416;2022-12-17T05:44:38;48.92;;;28.90;;
35306;SDS011;21420;52.196;21.416;2022-12-17T05:47:22;51.58;;;29.10;;
35306;SDS011;21420;52.196;21.416;2022-12-17T05:50:07;55.33;;;31.73;;
35306;SDS011;21420;52.196;21.416;2022-12-17T05:53:02;52.73;;;30.90;;
35306;SDS011;21420;52.196;21.416;2022-12-17T05:55:52;49.83;;;29.15;;
35306;SDS011;21420;52.196;21.416;2022-12-17T05:58:36;51.75;;;28.57;;
35306;SDS011;21420;52.196;21.416;2022-12-17T06:01:21;50.88;;;29.50;;
35306;SDS011;21420;52.196;21.416;2022-12-17T06:04:07;51.75;;;29.32;;
35306;SDS011;21420;52.196;21.416;2022-12-17T06:06:39;54.53;;;30.88;;
35306;SDS011;21420;52.196;21.416;2022-12-17T06:09:23;55.95;;;31.97;;
35306;SDS011;21420;52.196;21.416;2022-12-17T06:12:08;50.05;;;29.50;;
35306;SDS011;21420;52.196;21.416;2022-12-17T06:14:53;55.90;;;31.80;;
35306;SDS011;21420;52.196;21.416;2022-12-17T06:17:40;54.20;;;31.05;;
35306;SDS011;21420;52.196;21.416;2022-12-17T06:20:25;50.20;;;28.65;;
35306;SDS011;21420;52.196;21.416;2022-12-17T06:23:09;57.03;;;31.25;;
35306;SDS011;21420;52.196;21.416;2022-12-17T06:25:55;51.88;;;31.48;;
35306;SDS011;21420;52.196;21.416;2022-12-17T06:28:40;53.28;;;30.75;;
35306;SDS011;21420;52.196;21.416;2022-12-17T06:31:26;52.17;;;30.02;;
35306;SDS011;21420;52.196;21.416;2022-12-17T06:34:10;51.35;;;28.62;;
35306;SDS011;21420;52.196;21.416;2022-12-17T06:36:55;47.15;;;28.75;;
35306;SDS011;21420;52.196;21.416;2022-12-17T06:39:40;48.63;;;27.80;;
35306;SDS011;21420;52.196;21.416;2022-12-17T06:42:24;50.80;;;31.00;;
35306;SDS011;21420;52.196;21.416;2022-12-17T06:45:09;49.30;;;29.63;;
35306;SDS011;21420;52.196;21.416;2022-12-17T06:48:00;53.98;;;30.95;;
35306;SDS011;21420;52.196;21.416;2022-12-17T06:50:49;53.33;;;31.17;;
35306;SDS011;21420;52.196;21.416;2022-12-17T06:53:39;50.88;;;28.77;;
35306;SDS011;21420;52.196;21.416;2022-12-17T06:56:11;53.00;;;30.20;;
35306;SDS011;21420;52.196;21.416;2022-12-17T06:58:55;50.80;;;29.70;;
35306;SDS011;21420;52.196;21.416;2022-12-17T07:01:40;50.23;;;28.52;;
35306;SDS011;21420;52.196;21.416;2022-12-17T07:04:24;49.60;;;29.12;;
35306;SDS011;21420;52.196;21.416;2022-12-17T07:07:09;56.10;;;31.10;;
35306;SDS011;21420;52.196;21.416;2022-12-17T07:09:53;54.98;;;31.50;;
35306;SDS011;21420;52.196;21.416;2022-12-17T07:12:38;52.93;;;28.45;;
35306;SDS011;21420;52.196;21.416;2022-12-17T07:15:22;50.20;;;29.32;;
35306;SDS011;21420;52.196;21.416;2022-12-17T07:18:07;51.25;;;32.03;;
35306;SDS011;21420;52.196;21.416;2022-12-17T07:20:52;61.55;;;33.15;;
35306;SDS011;21420;52.196;21.416;2022-12-17T07:23:37;58.73;;;32.83;;
35306;SDS011;21420;52.196;21.416;2022-12-17T07:26:22;59.93;;;33.02;;
35306;SDS011;21420;52.196;21.416;2022-12-17T07:29:07;58.33;;;33.00;;
35306;SDS011;21420;52.196;21.416;2022-12-17T07:31:51;61.65;;;33.23;;
35306;SDS011;21420;52.196;21.416;2022-12-17T07:34:36;60.48;;;33.35;;
35306;SDS011;21420;52.196;21.416;2022-12-17T07:37:20;58.28;;;32.28;;
35306;SDS011;21420;52.196;21.416;2022-12-17T07:40:06;59.40;;;33.63;;
35306;SDS011;21420;52.196;21.416;2022-12-17T07:42:52;68.20;;;36.35;;
35306;SDS011;21420;52.196;21.416;2022-12-17T07:45:37;66.60;;;34.80;;
35306;SDS011;21420;52.196;21.416;2022-12-17T07:48:24;61.50;;;32.48;;
35306;SDS011;21420;52.196;21.416;2022-12-17T07:51:11;63.17;;;34.90;;
35306;SDS011;21420;52.196;21.416;2022-12-17T07:53:56;59.45;;;33.02;;
35306;SDS011;21420;52.196;21.416;2022-12-17T07:56:41;62.03;;;34.00;;
35306;SDS011;21420;52.196;21.416;2022-12-17T07:59:26;60.05;;;34.25;;
35306;SDS011;21420;52.196;21.416;2022-12-17T08:02:11;56.10;;;31.73;;
35306;SDS011;21420;52.196;21.416;2022-12-17T08:04:55;74.20;;;38.15;;
35306;SDS011;21420;52.196;21.416;2022-12-17T08:07:39;70.47;;;36.10;;
35306;SDS011;21420;52.196;21.416;2022-12-17T08:10:24;56.73;;;31.37;;
35306;SDS011;21420;52.196;21.416;2022-12-17T08:13:10;62.00;;;33.05;;
35306;SDS011;21420;52.196;21.416;2022-12-17T08:15:55;64.82;;;37.25;;
35306;SDS011;21420;52.196;21.416;2022-12-17T08:18:39;81.95;;;44.05;;
35306;SDS011;21420;52.196;21.416;2022-12-17T08:21:24;75.00;;;40.15;;
35306;SDS011;21420;52.196;21.416;2022-12-17T08:24:09;60.67;;;33.53;;
35306;SDS011;21420;52.196;21.416;2022-12-17T08:26:55;63.63;;;32.95;;
35306;SDS011;21420;52.196;21.416;2022-12-17T08:29:40;55.98;;;31.80;;
35306;SDS011;21420;52.196;21.416;2022-12-17T08:32:25;59.60;;;32.58;;
35306;SDS011;21420;52.196;21.416;2022-12-17T08:35:10;59.48;;;33.92;;
35306;SDS011;21420;52.196;21.416;2022-12-17T08:38:02;58.87;;;35.03;;
35306;SDS011;21420;52.196;21.416;2022-12-17T08:40:48;55.50;;;32.03;;
35306;SDS011;21420;52.196;21.416;2022-12-17T08:43:33;54.35;;;31.85;;
35306;SDS011;21420;52.196;21.416;2022-12-17T08:46:18;57.78;;;31.62;;
35306;SDS011;21420;52.196;21.416;2022-12-17T08:49:03;65.97;;;33.78;;
35306;SDS011;21420;52.196;21.416;2022-12-17T08:51:48;66.77;;;31.95;;
35306;SDS011;21420;52.196;21.416;2022-12-17T08:54:37;64.25;;;33.13;;
35306;SDS011;21420;52.196;21.416;2022-12-17T08:57:20;56.65;;;32.38;;
35306;SDS011;21420;52.196;21.416;2022-12-17T09:00:05;64.25;;;33.98;;
35306;SDS011;21420;52.196;21.416;2022-12-17T09:02:55;57.43;;;32.42;;
35306;SDS011;21420;52.196;21.416;2022-12-17T09:05:41;67.70;;;35.85;;
35306;SDS011;21420;52.196;21.416;2022-12-17T09:08:28;61.98;;;35.80;;
35306;SDS011;21420;52.196;21.416;2022-12-17T09:11:02;78.55;;;41.63;;
35306;SDS011;21420;52.196;21.416;2022-12-17T09:13:47;101.67;;;49.55;;
35306;SDS011;21420;52.196;21.416;2022-12-17T09:16:32;60.28;;;33.50;;
35306;SDS011;21420;52.196;21.416;2022-12-17T09:19:18;75.03;;;35.28;;
35306;SDS011;21420;52.196;21.416;2022-12-17T09:22:03;62.10;;;32.40;;
35306;SDS011;21420;52.196;21.416;2022-12-17T09:24:48;63.10;;;33.80;;
35306;SDS011;21420;52.196;21.416;2022-12-17T09:27:37;66.85;;;34.43;;
35306;SDS011;21420;52.196;21.416;2022-12-17T09:30:20;63.87;;;35.70;;
35306;SDS011;21420;52.196;21.416;2022-12-17T09:32:57;63.55;;;34.53;;
35306;SDS011;21420;52.196;21.416;2022-12-17T09:35:42;58.23;;;31.90;;
35306;SDS011;21420;52.196;21.416;2022-12-17T09:38:27;61.08;;;34.20;;
35306;SDS011;21420;52.196;21.416;2022-12-17T09:41:25;66.80;;;34.35;;
35306;SDS011;21420;52.196;21.416;2022-12-17T09:44:17;66.12;;;34.20;;
35306;SDS011;21420;52.196;21.416;2022-12-17T09:49:53;65.50;;;34.95;;
35306;SDS011;21420;52.196;21.416;2022-12-17T09:52:38;62.48;;;36.38;;
35306;SDS011;21420;52.196;21.416;2022-12-17T09:58:19;61.95;;;34.65;;
35306;SDS011;21420;52.196;21.416;2022-12-17T10:01:15;63.55;;;32.75;;
35306;SDS011;21420;52.196;21.416;2022-12-17T10:06:46;61.53;;;33.25;;
35306;SDS011;21420;52.196;21.416;2022-12-17T10:09:31;65.10;;;36.38;;
35306;SDS011;21420;52.196;21.416;2022-12-17T10:12:18;69.85;;;37.80;;
35306;SDS011;21420;52.196;21.416;2022-12-17T10:15:05;67.17;;;35.90;;
35306;SDS011;21420;52.196;21.416;2022-12-17T10:17:53;58.80;;;31.93;;
35306;SDS011;21420;52.196;21.416;2022-12-17T10:20:40;65.57;;;34.27;;
35306;SDS011;21420;52.196;21.416;2022-12-17T10:23:34;65.40;;;33.73;;
35306;SDS011;21420;52.196;21.416;2022-12-17T10:29:09;56.48;;;31.90;;
35306;SDS011;21420;52.196;21.416;2022-12-17T10:31:58;60.10;;;31.93;;
35306;SDS011;21420;52.196;21.416;2022-12-17T10:34:57;54.95;;;31.55;;
35306;SDS011;21420;52.196;21.416;2022-12-17T10:37:42;58.33;;;31.62;;
35306;SDS011;21420;52.196;21.416;2022-12-17T10:40:28;59.30;;;31.82;;
35306;SDS011;21420;52.196;21.416;2022-12-17T10:46:24;53.85;;;30.70;;
35306;SDS011;21420;52.196;21.416;2022-12-17T10:49:13;56.25;;;31.05;;
35306;SDS011;21420;52.196;21.416;2022-12-17T10:52:05;61.42;;;33.53;;
35306;SDS011;21420;52.196;21.416;2022-12-17T10:55:22;62.85;;;33.30;;
35306;SDS011;21420;52.196;21.416;2022-12-17T10:58:14;61.68;;;33.88;;
35306;SDS011;21420;52.196;21.416;2022-12-17T11:01:24;63.05;;;33.88;;
35306;SDS011;21420;52.196;21.416;2022-12-17T11:04:23;61.37;;;31.90;;
35306;SDS011;21420;52.196;21.416;2022-12-17T11:07:26;64.97;;;34.63;;
35306;SDS011;21420;52.196;21.416;2022-12-17T11:10:24;74.82;;;37.75;;
35306;SDS011;21420;52.196;21.416;2022-12-17T11:13:31;73.10;;;37.50;;
35306;SDS011;21420;52.196;21.416;2022-12-17T11:16:21;63.35;;;33.55;;
35306;SDS011;21420;52.196;21.416;2022-12-17T11:19:16;65.12;;;33.90;;
35306;SDS011;21420;52.196;21.416;2022-12-17T11:22:40;62.78;;;31.73;;
35306;SDS011;21420;52.196;21.416;2022-12-17T11:25:51;79.27;;;38.23;;
35306;SDS011;21420;52.196;21.416;2022-12-17T11:28:50;59.90;;;32.83;;
35306;SDS011;21420;52.196;21.416;2022-12-17T11:31:44;59.58;;;32.50;;
35306;SDS011;21420;52.196;21.416;2022-12-17T11:41:27;62.95;;;31.10;;
35306;SDS011;21420;52.196;21.416;2022-12-17T11:50:51;59.48;;;31.17;;
35306;SDS011;21420;52.196;21.416;2022-12-17T11:54:03;76.85;;;38.98;;
35306;SDS011;21420;52.196;21.416;2022-12-17T11:57:17;67.37;;;36.15;;
35306;SDS011;21420;52.196;21.416;2022-12-17T12:00:14;70.10;;;39.65;;
35306;SDS011;21420;52.196;21.416;2022-12-17T12:06:45;57.05;;;31.07;;
35306;SDS011;21420;52.196;21.416;2022-12-17T12:10:06;57.88;;;30.92;;
35306;SDS011;21420;52.196;21.416;2022-12-17T12:22:06;56.10;;;30.95;;
35306;SDS011;21420;52.196;21.416;2022-12-17T12:25:18;55.05;;;29.18;;
35306;SDS011;21420;52.196;21.416;2022-12-17T12:31:40;57.73;;;30.60;;
35306;SDS011;21420;52.196;21.416;2022-12-17T12:34:47;55.30;;;29.95;;
35306;SDS011;21420;52.196;21.416;2022-12-17T12:37:34;61.53;;;30.43;;
35306;SDS011;21420;52.196;21.416;2022-12-17T12:43:42;54.88;;;30.08;;
35306;SDS011;21420;52.196;21.416;2022-12-17T12:46:38;65.80;;;31.23;;
35306;SDS011;21420;52.196;21.416;2022-12-17T12:52:41;51.23;;;27.60;;
35306;SDS011;21420;52.196;21.416;2022-12-17T12:55:37;59.30;;;30.92;;
35306;SDS011;21420;52.196;21.416;2022-12-17T12:58:24;58.73;;;31.23;;
35306;SDS011;21420;52.196;21.416;2022-12-17T13:01:15;57.60;;;29.48;;
35306;SDS011;21420;52.196;21.416;2022-12-17T13:04:05;58.68;;;31.07;;
35306;SDS011;21420;52.196;21.416;2022-12-17T13:07:19;66.70;;;36.10;;
35306;SDS011;21420;52.196;21.416;2022-12-17T13:09:53;67.58;;;36.00;;
35306;SDS011;21420;52.196;21.416;2022-12-17T13:15:17;73.47;;;37.30;;
35306;SDS011;21420;52.196;21.416;2022-12-17T13:18:18;71.67;;;37.80;;
35306;SDS011;21420;52.196;21.416;2022-12-17T13:20:56;75.75;;;38.05;;
35306;SDS011;21420;52.196;21.416;2022-12-17T13:23:46;68.12;;;36.10;;
35306;SDS011;21420;52.196;21.416;2022-12-17T13:26:14;72.17;;;37.25;;
35306;SDS011;21420;52.196;21.416;2022-12-17T13:29:03;78.05;;;37.55;;
35306;SDS011;21420;52.196;21.416;2022-12-17T13:31:51;78.30;;;40.78;;
35306;SDS011;21420;52.196;21.416;2022-12-17T13:43:16;69.85;;;36.17;;
35306;SDS011;21420;52.196;21.416;2022-12-17T13:45:46;63.08;;;32.65;;
35306;SDS011;21420;52.196;21.416;2022-12-17T13:48:20;65.80;;;32.00;;
35306;SDS011;21420;52.196;21.416;2022-12-17T13:53:26;66.02;;;33.80;;
35306;SDS011;21420;52.196;21.416;2022-12-17T13:55:55;70.97;;;36.28;;
35306;SDS011;21420;52.196;21.416;2022-12-17T13:58:27;70.05;;;36.53;;
35306;SDS011;21420;52.196;21.416;2022-12-17T14:01:05;66.80;;;34.25;;
35306;SDS011;21420;52.196;21.416;2022-12-17T14:03:34;87.37;;;34.25;;
35306;SDS011;21420;52.196;21.416;2022-12-17T14:06:03;89.85;;;37.75;;
35306;SDS011;21420;52.196;21.416;2022-12-17T14:08:32;85.42;;;38.40;;
35306;SDS011;21420;52.196;21.416;2022-12-17T14:10:59;79.27;;;36.00;;
35306;SDS011;21420;52.196;21.416;2022-12-17T14:13:46;100.15;;;39.45;;
35306;SDS011;21420;52.196;21.416;2022-12-17T14:16:15;72.62;;;35.68;;
35306;SDS011;21420;52.196;21.416;2022-12-17T14:18:45;71.10;;;37.10;;
35306;SDS011;21420;52.196;21.416;2022-12-17T14:21:21;67.10;;;34.35;;
35306;SDS011;21420;52.196;21.416;2022-12-17T14:23:49;75.12;;;35.95;;
35306;SDS011;21420;52.196;21.416;2022-12-17T14:26:18;72.55;;;35.45;;
35306;SDS011;21420;52.196;21.416;2022-12-17T14:28:51;70.60;;;35.80;;
35306;SDS011;21420;52.196;21.416;2022-12-17T14:31:21;67.75;;;33.90;;
35306;SDS011;21420;52.196;21.416;2022-12-17T14:34:03;68.55;;;34.63;;
35306;SDS011;21420;52.196;21.416;2022-12-17T14:36:36;67.82;;;33.88;;
35306;SDS011;21420;52.196;21.416;2022-12-17T14:39:14;72.97;;;33.50;;
35306;SDS011;21420;52.196;21.416;2022-12-17T14:41:48;62.58;;;30.45;;
35306;SDS011;21420;52.196;21.416;2022-12-17T14:44:34;70.90;;;33.55;;
35306;SDS011;21420;52.196;21.416;2022-12-17T14:47:14;69.10;;;33.55;;
35306;SDS011;21420;52.196;21.416;2022-12-17T14:50:06;78.20;;;36.98;;
35306;SDS011;21420;52.196;21.416;2022-12-17T14:52:41;79.45;;;37.53;;
35306;SDS011;21420;52.196;21.416;2022-12-17T14:58:12;108.10;;;39.08;;
35306;SDS011;21420;52.196;21.416;2022-12-17T15:00:42;72.55;;;32.33;;
35306;SDS011;21420;52.196;21.416;2022-12-17T15:03:30;96.53;;;33.28;;
35306;SDS011;21420;52.196;21.416;2022-12-17T15:06:03;68.65;;;32.98;;
35306;SDS011;21420;52.196;21.416;2022-12-17T15:08:33;69.42;;;34.18;;
35306;SDS011;21420;52.196;21.416;2022-12-17T15:11:05;68.72;;;31.87;;
35306;SDS011;21420;52.196;21.416;2022-12-17T15:13:37;65.60;;;32.10;;
35306;SDS011;21420;52.196;21.416;2022-12-17T15:16:04;71.25;;;35.65;;
35306;SDS011;21420;52.196;21.416;2022-12-17T15:18:31;98.78;;;35.63;;
35306;SDS011;21420;52.196;21.416;2022-12-17T15:20:58;64.97;;;30.50;;
35306;SDS011;21420;52.196;21.416;2022-12-17T15:23:26;62.30;;;29.70;;
35306;SDS011;21420;52.196;21.416;2022-12-17T15:25:53;56.33;;;29.92;;
35306;SDS011;21420;52.196;21.416;2022-12-17T15:28:20;62.35;;;29.75;;
35306;SDS011;21420;52.196;21.416;2022-12-17T15:30:52;62.03;;;30.10;;
35306;SDS011;21420;52.196;21.416;2022-12-17T15:33:19;64.95;;;30.68;;
35306;SDS011;21420;52.196;21.416;2022-12-17T15:35:49;62.30;;;30.40;;
35306;SDS011;21420;52.196;21.416;2022-12-17T15:38:17;62.70;;;30.62;;
35306;SDS011;21420;52.196;21.416;2022-12-17T15:40:43;61.13;;;29.82;;
35306;SDS011;21420;52.196;21.416;2022-12-17T15:43:10;59.75;;;30.62;;
35306;SDS011;21420;52.196;21.416;2022-12-17T15:45:41;62.70;;;29.50;;
35306;SDS011;21420;52.196;21.416;2022-12-17T15:48:11;66.53;;;30.97;;
35306;SDS011;21420;52.196;21.416;2022-12-17T15:50:42;67.55;;;32.63;;
35306;SDS011;21420;52.196;21.416;2022-12-17T15:53:09;65.72;;;31.68;;
35306;SDS011;21420;52.196;21.416;2022-12-17T15:55:36;78.97;;;36.42;;
35306;SDS011;21420;52.196;21.416;2022-12-17T15:58:03;68.90;;;32.55;;
35306;SDS011;21420;52.196;21.416;2022-12-17T16:00:32;72.50;;;33.38;;
35306;SDS011;21420;52.196;21.416;2022-12-17T16:02:58;63.95;;;31.60;;
35306;SDS011;21420;52.196;21.416;2022-12-17T16:05:25;73.70;;;34.55;;
35306;SDS011;21420;52.196;21.416;2022-12-17T16:07:53;71.40;;;32.80;;
35306;SDS011;21420;52.196;21.416;2022-12-17T16:10:22;70.17;;;34.73;;
35306;SDS011;21420;52.196;21.416;2022-12-17T16:12:51;66.30;;;33.98;;
35306;SDS011;21420;52.196;21.416;2022-12-17T16:17:44;75.87;;;34.85;;
35306;SDS011;21420;52.196;21.416;2022-12-17T16:20:11;70.47;;;36.00;;
35306;SDS011;21420;52.196;21.416;2022-12-17T16:22:37;74.42;;;37.45;;
35306;SDS011;21420;52.196;21.416;2022-12-17T16:25:04;77.22;;;37.08;;
35306;SDS011;21420;52.196;21.416;2022-12-17T16:27:32;85.77;;;42.08;;
35306;SDS011;21420;52.196;21.416;2022-12-17T16:29:58;82.30;;;42.40;;
35306;SDS011;21420;52.196;21.416;2022-12-17T16:32:24;71.42;;;36.08;;
35306;SDS011;21420;52.196;21.416;2022-12-17T16:34:51;71.35;;;36.38;;
35306;SDS011;21420;52.196;21.416;2022-12-17T16:37:17;66.10;;;33.02;;
35306;SDS011;21420;52.196;21.416;2022-12-17T16:39:46;62.53;;;33.00;;
35306;SDS011;21420;52.196;21.416;2022-12-17T16:42:12;70.52;;;34.60;;
35306;SDS011;21420;52.196;21.416;2022-12-17T16:44:39;70.52;;;34.88;;
35306;SDS011;21420;52.196;21.416;2022-12-17T16:47:08;75.08;;;38.05;;
35306;SDS011;21420;52.196;21.416;2022-12-17T16:49:35;67.40;;;35.03;;
35306;SDS011;21420;52.196;21.416;2022-12-17T16:52:02;62.03;;;33.25;;
35306;SDS011;21420;52.196;21.416;2022-12-17T16:54:29;62.58;;;33.33;;
35306;SDS011;21420;52.196;21.416;2022-12-17T16:56:58;64.97;;;32.55;;
35306;SDS011;21420;52.196;21.416;2022-12-17T16:59:27;67.42;;;32.85;;
35306;SDS011;21420;52.196;21.416;2022-12-17T17:01:54;61.80;;;29.87;;
35306;SDS011;21420;52.196;21.416;2022-12-17T17:04:23;58.45;;;29.42;;
35306;SDS011;21420;52.196;21.416;2022-12-17T17:06:51;55.38;;;27.85;;